Time;durP1;ratioP1;P1;durP2;ratioP2;P2;SDS_P1;SDS_P2;PMS_P1;PMS_P2;Temp;Humidity;BMP_temperature;BMP_pressure;BME280_temperature;BME280_humidity;BME280_pressure;Samples;Min_cycle;Max_cycle;Signal;HPM_P1;HPM_P2
2021/07/03 00:01:38;;;;;;;4.88;3.00;;;;;;;17.79;71.55;99949.72;5095838;28;20083;-73
2021/07/03 00:04:08;;;;;;;4.47;2.88;;;;;;;17.72;71.88;99960.22;5095614;28;20375;-73
2021/07/03 00:06:37;;;;;;;5.63;3.03;;;;;;;17.66;72.15;99955.34;5095814;28;20036;-73
2021/07/03 00:09:06;;;;;;;6.03;2.90;;;;;;;17.66;72.23;99958.94;5077673;28;20520;-73
2021/07/03 00:11:34;;;;;;;5.25;2.90;;;;;;;17.62;72.39;99954.81;5095908;28;20498;-73
2021/07/03 00:14:03;;;;;;;4.65;3.30;;;;;;;17.65;72.47;99951.81;5095469;28;20098;-73
2021/07/03 00:16:31;;;;;;;4.65;2.85;;;;;;;17.72;72.13;99963.75;5095557;28;20075;-74
2021/07/03 00:19:02;;;;;;;5.38;3.17;;;;;;;17.74;72.30;99955.53;5095288;28;20399;-73
2021/07/03 00:21:31;;;;;;;6.43;3.00;;;;;;;17.77;72.06;99952.56;5077255;28;20451;-74
2021/07/03 00:23:59;;;;;;;7.72;3.58;;;;;;;17.78;71.93;99948.84;5095166;28;20119;-74
2021/07/03 00:26:29;;;;;;;4.30;3.20;;;;;;;17.85;71.74;99951.81;5095327;28;20123;-73
2021/07/03 00:28:57;;;;;;;4.78;3.13;;;;;;;17.91;71.40;99951.22;5095022;28;20048;-74
2021/07/03 00:31:25;;;;;;;7.07;3.50;;;;;;;17.87;71.42;99957.94;5095566;28;20551;-73
2021/07/03 00:33:54;;;;;;;5.07;3.20;;;;;;;17.87;71.68;99947.13;5095283;28;20044;-72
2021/07/03 00:36:22;;;;;;;5.75;3.35;;;;;;;17.87;71.38;99947.97;5095598;28;20067;-73
2021/07/03 00:38:51;;;;;;;7.68;3.40;;;;;;;17.82;71.74;99947.56;5095184;28;20454;-73
2021/07/03 00:41:19;;;;;;;8.40;3.65;;;;;;;17.81;71.69;99948.56;5094818;28;20074;-73
2021/07/03 00:43:49;;;;;;;5.53;3.47;;;;;;;17.74;72.27;99950.13;5095009;28;20387;-72
2021/07/03 00:46:17;;;;;;;4.93;3.50;;;;;;;17.73;72.22;99951.13;5094745;28;20101;-73
2021/07/03 00:48:46;;;;;;;5.78;4.00;;;;;;;17.68;72.57;99959.63;5094743;28;20040;-72
2021/07/03 00:51:14;;;;;;;5.13;3.72;;;;;;;17.61;73.04;99958.50;5094909;28;20048;-72
2021/07/03 00:53:45;;;;;;;5.25;3.63;;;;;;;17.53;73.25;99955.66;5095106;28;20044;-73
2021/07/03 00:56:13;;;;;;;5.57;3.63;;;;;;;17.49;73.52;99954.28;5094850;28;20380;-73
2021/07/03 00:58:41;;;;;;;5.65;3.53;;;;;;;17.53;73.47;99952.97;5094841;28;20040;-74
2021/07/03 01:01:11;;;;;;;5.10;3.70;;;;;;;17.42;73.85;99955.81;5094706;28;20051;-75
2021/07/03 01:03:39;;;;;;;5.43;3.40;;;;;;;17.44;73.80;99940.34;5077047;28;20075;-75
2021/07/03 01:06:07;;;;;;;5.38;3.80;;;;;;;17.35;74.25;99943.91;5094409;28;20036;-73
2021/07/03 01:08:36;;;;;;;4.90;3.58;;;;;;;17.35;74.30;99946.59;5094644;28;20525;-73
2021/07/03 01:11:04;;;;;;;5.47;3.90;;;;;;;17.28;74.57;99950.88;5094370;28;20604;-73
2021/07/03 01:13:32;;;;;;;8.27;4.32;;;;;;;17.22;75.11;99954.13;5094242;28;20048;-73
2021/07/03 01:16:00;;;;;;;5.60;4.30;;;;;;;17.22;75.29;99954.13;5094360;28;20036;-74
2021/07/03 01:18:30;;;;;;;6.13;4.40;;;;;;;17.04;75.75;99970.16;5094646;28;20068;-73
2021/07/03 01:20:59;;;;;;;6.28;4.20;;;;;;;17.10;75.79;99954.28;5094402;28;20482;-74
2021/07/03 01:23:28;;;;;;;5.72;3.72;;;;;;;16.98;76.27;99960.78;5094386;28;20516;-74
2021/07/03 01:26:00;;;;;;;7.07;4.88;;;;;;;16.97;76.52;99964.47;5094264;28;20044;-74
2021/07/03 01:28:28;;;;;;;8.88;4.43;;;;;;;16.93;76.73;99960.34;5094134;28;20124;-74
2021/07/03 01:30:59;;;;;;;8.70;4.88;;;;;;;16.86;77.11;99956.50;5093589;28;20078;-75
2021/07/03 01:33:27;;;;;;;6.82;4.90;;;;;;;16.94;76.78;99970.13;5094331;28;20044;-76
2021/07/03 01:35:55;;;;;;;6.60;5.20;;;;;;;16.88;77.08;99968.00;5094061;28;20089;-74
2021/07/03 01:38:27;;;;;;;8.27;4.93;;;;;;;16.80;77.51;99962.47;5093740;28;20041;-74
2021/07/03 01:40:55;;;;;;;6.75;4.88;;;;;;;16.84;77.32;99963.88;5075702;28;20123;-74
2021/07/03 01:43:26;;;;;;;7.85;5.45;;;;;;;16.82;77.35;99957.78;5093852;28;20036;-76
2021/07/03 01:45:58;;;;;;;6.28;4.90;;;;;;;16.84;77.40;99953.97;5093870;28;20543;-75
2021/07/03 01:48:27;;;;;;;6.13;4.93;;;;;;;16.75;77.77;99948.56;5094008;28;20036;-76
2021/07/03 01:50:56;;;;;;;7.18;5.03;;;;;;;16.70;78.19;99951.69;5075903;28;20052;-75
2021/07/03 01:53:27;;;;;;;7.47;5.07;;;;;;;16.76;78.02;99944.88;5093824;28;20036;-77
2021/07/03 01:55:56;;;;;;;9.55;4.97;;;;;;;16.73;78.10;99950.53;5094133;28;20457;-77
2021/07/03 01:58:27;;;;;;;7.55;5.28;;;;;;;16.69;78.35;99957.19;5093713;28;20047;-77
2021/07/03 02:00:58;;;;;;;8.55;4.45;;;;;;;16.60;78.77;99959.72;5093940;28;20047;-76
2021/07/03 02:03:28;;;;;;;7.65;5.22;;;;;;;16.58;78.91;99956.28;5093651;28;20049;-76
2021/07/03 02:05:56;;;;;;;6.85;5.03;;;;;;;16.53;79.34;99966.63;5093335;28;20101;-75
2021/07/03 02:08:25;;;;;;;8.05;5.13;;;;;;;16.51;79.58;99960.53;5093327;28;20492;-73
2021/07/03 02:10:53;;;;;;;9.00;4.90;;;;;;;16.54;79.42;99960.25;5093537;28;20046;-73
2021/07/03 02:13:25;;;;;;;6.97;5.25;;;;;;;16.49;79.66;99957.09;5093386;28;20060;-74
2021/07/03 02:15:53;;;;;;;8.02;5.72;;;;;;;16.51;79.60;99965.91;5093526;28;20097;-74
2021/07/03 02:18:22;;;;;;;7.95;5.53;;;;;;;16.51;79.69;99963.22;5092964;28;20407;-74
2021/07/03 02:20:51;;;;;;;8.38;5.60;;;;;;;16.49;79.78;99973.25;5093253;28;20168;-75
2021/07/03 02:23:20;;;;;;;7.57;5.40;;;;;;;16.50;79.94;99984.88;5093182;28;20444;-75
2021/07/03 02:25:48;;;;;;;6.93;5.40;;;;;;;16.47;79.87;99967.16;5093296;28;20052;-77
2021/07/03 02:28:16;;;;;;;8.05;5.32;;;;;;;16.40;80.70;99976.75;5092954;28;20086;-72
2021/07/03 02:30:46;;;;;;;6.22;5.03;;;;;;;16.42;80.70;99969.44;5093093;28;20083;-74
2021/07/03 02:33:14;;;;;;;7.88;5.25;;;;;;;16.40;80.56;99968.69;5093102;28;20040;-72
2021/07/03 02:35:42;;;;;;;7.93;5.45;;;;;;;16.45;80.54;99969.16;5093251;28;20127;-71
2021/07/03 02:38:11;;;;;;;6.75;5.00;;;;;;;16.40;80.87;99978.59;5092870;28;20479;-72
2021/07/03 02:40:41;;;;;;;7.25;5.20;;;;;;;16.38;80.96;99967.13;5092697;28;20036;-71
2021/07/03 02:43:09;;;;;;;7.53;4.95;;;;;;;16.33;81.41;99970.25;5092452;28;20531;-72
2021/07/03 02:45:38;;;;;;;6.85;5.20;;;;;;;16.34;81.47;99966.56;5074982;28;20056;-72
2021/07/03 02:48:08;;;;;;;6.35;4.40;;;;;;;16.36;81.68;99972.66;5092961;28;20044;-72
2021/07/03 02:50:36;;;;;;;6.47;4.85;;;;;;;16.28;82.18;99983.25;5093124;28;20048;-72
2021/07/03 02:53:05;;;;;;;6.90;5.20;;;;;;;16.24;83.22;99987.19;5092739;28;20122;-74
2021/07/03 02:55:33;;;;;;;8.77;5.55;;;;;;;16.24;83.02;99988.06;5092894;28;20051;-71
2021/07/03 02:58:01;;;;;;;7.25;5.45;;;;;;;16.21;83.62;99982.06;5092797;28;20040;-71
2021/07/03 03:00:29;;;;;;;7.13;5.13;;;;;;;16.25;83.73;99976.28;5092773;28;20131;-73
2021/07/03 03:02:58;;;;;;;7.38;5.25;;;;;;;16.13;84.58;99971.16;5093118;28;20123;-73
2021/07/03 03:05:29;;;;;;;7.50;5.72;;;;;;;16.21;84.27;99984.75;5092455;28;20097;-73
2021/07/03 03:07:57;;;;;;;8.02;5.35;;;;;;;16.26;84.11;99980.69;5092666;28;20096;-73
2021/07/03 03:10:25;;;;;;;8.20;5.28;;;;;;;16.18;84.37;99987.72;5092498;28;20047;-73
2021/07/03 03:12:54;;;;;;;7.30;5.50;;;;;;;16.31;83.99;99985.69;5092644;28;20044;-73
2021/07/03 03:15:24;;;;;;;7.68;5.03;;;;;;;16.25;84.56;99994.28;5092619;28;20059;-73
2021/07/03 03:17:53;;;;;;;7.90;5.95;;;;;;;16.26;84.52;99977.16;5092796;28;20068;-73
2021/07/03 03:20:21;;;;;;;8.07;5.53;;;;;;;16.26;84.47;99986.06;5092361;28;20086;-72
2021/07/03 03:22:51;;;;;;;8.27;6.13;;;;;;;16.27;84.61;99986.91;5092523;28;20044;-72
2021/07/03 03:25:19;;;;;;;7.30;4.70;;;;;;;16.27;84.71;99984.22;5092239;28;20052;-72
2021/07/03 03:27:49;;;;;;;6.68;4.90;;;;;;;16.30;84.72;99992.88;5092723;28;20452;-72
2021/07/03 03:30:18;;;;;;;9.27;5.95;;;;;;;16.30;84.67;99992.03;5092292;28;20040;-74
2021/07/03 03:32:46;;;;;;;8.05;5.95;;;;;;;16.35;84.43;100003.25;5092712;28;20551;-74
2021/07/03 03:35:15;;;;;;;8.20;5.82;;;;;;;16.41;84.28;99993.78;5092547;28;20388;-73
2021/07/03 03:37:43;;;;;;;7.47;5.20;;;;;;;16.45;83.89;99996.06;5092476;28;20088;-73
2021/07/03 03:40:14;;;;;;;6.72;5.55;;;;;;;16.78;82.82;100007.53;5092545;28;20119;-76
2021/07/03 03:42:42;;;;;;;7.70;5.25;;;;;;;17.30;79.68;99997.41;5092601;28;20119;-76
2021/07/03 03:45:12;;;;;;;7.88;5.70;;;;;;;18.21;75.19;99993.31;5092327;28;20491;-73
2021/07/03 03:47:41;;;;;;;6.80;5.10;;;;;;;19.22;70.79;100000.50;5092551;28;20044;-74
2021/07/03 03:50:11;;;;;;;6.15;4.72;;;;;;;19.92;67.67;99997.91;5091918;28;20040;-73
2021/07/03 03:52:40;;;;;;;6.82;4.90;;;;;;;20.13;66.81;99997.53;5092822;28;20491;-75
2021/07/03 03:55:09;;;;;;;6.57;4.70;;;;;;;20.66;64.30;99993.78;5095999;28;20046;-77
2021/07/03 03:57:39;;;;;;;5.80;4.32;;;;;;;20.44;65.38;100000.59;5096251;28;20093;-75
2021/07/03 04:00:09;;;;;;;7.30;4.80;;;;;;;20.71;64.11;99999.56;5096012;28;20051;-77
2021/07/03 04:02:37;;;;;;;5.95;4.63;;;;;;;21.54;61.13;99986.03;5095982;28;20044;-77
2021/07/03 04:05:11;;;;;;;7.47;4.53;;;;;;;21.74;60.54;99992.81;5095773;28;20128;-76
2021/07/03 04:07:39;;;;;;;6.00;4.40;;;;;;;21.50;61.07;99990.94;5096070;28;20135;-75
2021/07/03 04:10:09;;;;;;;5.50;4.47;;;;;;;21.03;62.19;99987.94;5095820;28;20426;-74
2021/07/03 04:12:40;;;;;;;5.78;4.65;;;;;;;19.68;67.36;99993.13;5077413;28;20052;-75
2021/07/03 04:15:11;;;;;;;6.05;4.60;;;;;;;19.16;69.96;99992.97;5095445;28;20050;-76
2021/07/03 04:17:40;;;;;;;6.00;4.65;;;;;;;19.13;69.87;99986.03;5095848;28;20507;-75
2021/07/03 04:20:10;;;;;;;7.22;4.63;;;;;;;18.90;70.93;99990.16;5095802;28;20089;-76
2021/07/03 04:22:39;;;;;;;6.53;4.47;;;;;;;18.58;72.34;99990.59;5096187;28;20063;-81
2021/07/03 04:25:11;;;;;;;7.40;4.95;;;;;;;18.50;73.16;99983.25;5095557;28;20076;-78
2021/07/03 04:27:42;;;;;;;6.65;5.03;;;;;;;18.43;73.25;99986.69;5095451;28;20051;-73
2021/07/03 04:30:12;;;;;;;6.75;5.22;;;;;;;18.13;74.77;99977.00;5095425;28;20048;-78
2021/07/03 04:32:43;;;;;;;7.45;4.53;;;;;;;18.02;75.19;99975.34;5095598;28;20040;-72
2021/07/03 04:35:12;;;;;;;6.63;5.15;;;;;;;18.00;75.52;99988.13;5095441;28;20052;-72
2021/07/03 04:37:41;;;;;;;6.68;4.75;;;;;;;18.07;75.28;99964.97;5095141;28;20072;-73
2021/07/03 04:40:10;;;;;;;5.53;4.57;;;;;;;18.11;75.18;99976.31;5094930;28;20115;-72
2021/07/03 04:42:40;;;;;;;6.80;4.78;;;;;;;18.11;75.06;99979.84;5095257;28;20040;-75
2021/07/03 04:45:10;;;;;;;8.25;5.22;;;;;;;18.24;74.72;99969.59;5077000;28;20050;-78
2021/07/03 04:47:38;;;;;;;7.07;5.25;;;;;;;18.22;74.79;99963.47;5095348;28;20079;-75
2021/07/03 04:50:08;;;;;;;6.55;4.72;;;;;;;18.17;74.89;99965.78;5095143;28;20085;-75
2021/07/03 04:52:38;;;;;;;5.97;4.40;;;;;;;18.21;75.12;99967.16;5094933;28;20127;-77
2021/07/03 04:55:10;;;;;;;6.25;4.47;;;;;;;18.23;74.47;99973.25;5095006;28;20052;-79
2021/07/03 04:57:40;;;;;;;6.20;5.03;;;;;;;18.35;74.40;99962.31;5094577;28;20732;-76
2021/07/03 05:00:09;;;;;;;6.75;4.88;;;;;;;18.49;73.64;99973.44;5094570;28;20065;-75
2021/07/03 05:02:37;;;;;;;7.22;4.93;;;;;;;18.57;73.36;99967.31;5094632;28;20073;-76
2021/07/03 05:05:07;;;;;;;7.53;4.90;;;;;;;18.56;73.29;99968.31;5093599;28;20067;-76
2021/07/03 05:07:35;;;;;;;6.50;4.55;;;;;;;18.55;73.67;99963.91;5094396;28;20052;-72
2021/07/03 05:10:04;;;;;;;8.35;4.75;;;;;;;18.63;73.41;99965.88;5094435;28;20040;-73
2021/07/03 05:12:32;;;;;;;7.50;4.97;;;;;;;18.74;72.65;99962.97;5094318;28;20539;-74
2021/07/03 05:15:02;;;;;;;8.25;5.47;;;;;;;18.91;71.80;99970.25;5076208;28;20059;-73
2021/07/03 05:17:31;;;;;;;6.32;4.63;;;;;;;18.99;71.24;99958.69;5094066;28;20423;-74
2021/07/03 05:19:59;;;;;;;6.20;4.53;;;;;;;19.17;71.23;99973.91;5094648;28;20067;-76
2021/07/03 05:22:28;;;;;;;6.43;4.28;;;;;;;19.51;69.86;99958.84;5094358;28;20119;-76
2021/07/03 05:24:56;;;;;;;6.35;4.55;;;;;;;19.85;68.41;99964.34;5094452;28;20123;-76
2021/07/03 05:27:24;;;;;;;6.18;4.32;;;;;;;20.42;65.75;99968.22;5094063;28;20054;-76
2021/07/03 05:29:52;;;;;;;5.85;4.10;;;;;;;20.82;64.13;99966.72;5094039;28;20036;-77
2021/07/03 05:32:22;;;;;;;5.75;3.80;;;;;;;22.31;59.27;99951.16;5093780;28;20150;-76
2021/07/03 05:34:50;;;;;;;6.75;4.00;;;;;;;24.11;53.51;99949.75;5094277;28;20067;-74
2021/07/03 05:37:21;;;;;;;5.45;3.55;;;;;;;24.23;52.48;99951.00;5094024;28;20066;-75
2021/07/03 05:39:49;;;;;;;5.13;3.65;;;;;;;24.41;52.29;99966.13;5091401;28;20079;-77
2021/07/03 05:42:17;;;;;;;5.50;4.07;;;;;;;24.79;51.80;99958.66;5092882;28;20548;-77
2021/07/03 05:44:46;;;;;;;7.35;3.70;;;;;;;24.98;50.54;99957.19;5093219;28;20047;-74
2021/07/03 05:47:14;;;;;;;5.95;3.90;;;;;;;24.39;51.92;99958.16;5074949;28;20082;-78
2021/07/03 05:49:44;;;;;;;6.63;3.72;;;;;;;24.53;51.31;99962.75;5093683;28;20051;-78
2021/07/03 05:52:13;;;;;;;5.28;3.42;;;;;;;25.07;50.34;99956.91;5093335;28;20044;-82
2021/07/03 05:54:41;;;;;;;5.60;3.90;;;;;;;25.11;49.62;99960.13;5092977;28;20052;-78
2021/07/03 05:57:09;;;;;;;6.63;4.25;;;;;;;25.29;49.56;99962.44;5092683;28;20075;-75
2021/07/03 05:59:40;;;;;;;5.57;4.20;;;;;;;24.51;51.86;99963.97;5093281;28;20513;-78
2021/07/03 06:02:09;;;;;;;7.53;4.20;;;;;;;25.30;49.90;99958.66;5093135;28;20044;-80
2021/07/03 06:04:38;;;;;;;6.38;4.47;;;;;;;25.32;49.82;99960.13;5093254;28;20453;-78
2021/07/03 06:07:07;;;;;;;6.18;4.35;;;;;;;26.22;47.74;99961.31;5092941;28;20043;-77
2021/07/03 06:09:36;;;;;;;5.95;4.40;;;;;;;26.98;45.18;99959.41;5092741;28;20116;-80
2021/07/03 06:12:04;;;;;;;7.20;4.40;;;;;;;26.79;45.88;99971.97;5093064;28;20044;-75
2021/07/03 06:14:35;;;;;;;6.57;4.00;;;;;;;26.42;46.41;99962.31;5092917;28;20520;-79
2021/07/03 06:17:04;;;;;;;5.78;4.05;;;;;;;26.17;47.11;99977.50;5092399;28;20489;-76
2021/07/03 06:19:32;;;;;;;6.07;4.18;;;;;;;26.07;47.57;99972.38;5092918;28;20552;-77
2021/07/03 06:22:00;;;;;;;5.97;4.45;;;;;;;26.88;45.37;99980.84;5092743;28;20047;-78
2021/07/03 06:24:30;;;;;;;5.30;4.18;;;;;;;27.44;43.66;99975.13;5092794;28;20040;-78
2021/07/03 06:26:59;;;;;;;6.53;4.50;;;;;;;27.05;44.59;99982.19;5092775;28;20044;-78
2021/07/03 06:29:27;;;;;;;6.10;4.43;;;;;;;25.53;48.15;99978.41;5092980;28;20036;-78
2021/07/03 06:31:55;;;;;;;9.60;4.75;;;;;;;24.47;51.22;99974.41;5092580;28;20040;-77
2021/07/03 06:34:24;;;;;;;7.20;4.53;;;;;;;24.96;50.06;99964.75;5092125;28;20040;-80
2021/07/03 06:36:52;;;;;;;7.05;4.40;;;;;;;25.96;47.90;99968.31;5092263;28;20044;-76
2021/07/03 06:39:20;;;;;;;6.07;4.68;;;;;;;25.62;48.09;99965.47;5092663;28;20047;-77
2021/07/03 06:41:50;;;;;;;6.82;4.53;;;;;;;25.47;48.88;99972.88;5092599;28;20046;-75
2021/07/03 06:44:18;;;;;;;7.68;4.75;;;;;;;24.80;50.19;99979.44;5092713;28;20032;-74
2021/07/03 06:46:47;;;;;;;6.55;4.88;;;;;;;24.61;50.87;99980.03;5092196;28;20052;-75
2021/07/03 06:49:15;;;;;;;6.35;4.63;;;;;;;24.86;50.10;99978.69;5074622;28;20413;-78
2021/07/03 06:51:44;;;;;;;7.68;4.78;;;;;;;25.63;48.44;99961.69;5092340;28;20040;-76
2021/07/03 06:54:12;;;;;;;6.75;4.63;;;;;;;26.92;44.59;99970.31;5092724;28;20070;-78
2021/07/03 06:56:40;;;;;;;6.15;4.40;;;;;;;27.33;43.85;99964.78;5092140;28;20040;-71
2021/07/03 06:59:10;;;;;;;6.13;4.60;;;;;;;26.27;45.54;99972.50;5074339;28;20052;-80
2021/07/03 07:01:38;;;;;;;6.65;4.25;;;;;;;26.53;45.20;99969.09;5074141;28;20056;-77
2021/07/03 07:04:06;;;;;;;5.57;4.32;;;;;;;25.92;46.44;99980.66;5092460;28;20126;-72
2021/07/03 07:06:34;;;;;;;5.50;3.97;;;;;;;25.81;47.26;99973.00;5092174;28;20058;-77
2021/07/03 07:09:03;;;;;;;7.90;4.40;;;;;;;25.64;47.45;99977.88;5074209;28;20101;-78
2021/07/03 07:11:31;;;;;;;5.70;4.32;;;;;;;24.99;47.98;99965.19;5091930;28;20051;-75
2021/07/03 07:13:59;;;;;;;5.97;3.58;;;;;;;25.26;48.23;99970.97;5091845;28;20055;-76
2021/07/03 07:16:29;;;;;;;5.88;3.90;;;;;;;24.97;48.39;99959.09;5091846;28;20048;-77
2021/07/03 07:18:57;;;;;;;6.85;4.07;;;;;;;25.23;46.53;99960.47;5092413;28;20036;-79
2021/07/03 07:21:26;;;;;;;4.13;3.28;;;;;;;25.16;46.47;99967.72;5092358;28;20127;-75
2021/07/03 07:23:54;;;;;;;6.05;3.90;;;;;;;24.91;45.62;99968.06;5092208;28;20123;-75
2021/07/03 07:26:23;;;;;;;5.18;3.90;;;;;;;24.77;46.66;99963.47;5091919;28;20055;-74
2021/07/03 07:28:51;;;;;;;6.00;3.83;;;;;;;24.74;47.04;99966.59;5094543;28;20048;-75
2021/07/03 07:31:20;;;;;;;6.57;4.47;;;;;;;24.62;47.40;99973.56;5096078;28;20032;-75
2021/07/03 07:33:51;;;;;;;5.70;3.95;;;;;;;24.41;47.06;99982.50;5096111;28;20479;-74
2021/07/03 07:36:19;;;;;;;5.47;3.90;;;;;;;24.47;47.90;99977.13;5077439;28;20055;-77
2021/07/03 07:38:47;;;;;;;7.05;4.10;;;;;;;24.65;48.41;99981.34;5095950;28;20040;-74
2021/07/03 07:41:16;;;;;;;6.35;4.20;;;;;;;25.03;48.27;99972.00;5095411;28;20483;-74
2021/07/03 07:43:45;;;;;;;7.03;4.32;;;;;;;24.89;47.65;99978.28;5095881;28;20040;-76
2021/07/03 07:46:13;;;;;;;6.03;4.05;;;;;;;24.54;46.99;99986.25;5095468;28;20419;-75
2021/07/03 07:48:41;;;;;;;5.60;3.90;;;;;;;24.54;47.06;99985.41;5095795;28;20046;-75
2021/07/03 07:51:11;;;;;;;7.93;4.00;;;;;;;24.58;46.89;99988.59;5095766;28;20036;-78
2021/07/03 07:53:39;;;;;;;6.50;4.40;;;;;;;24.54;47.18;99986.25;5095588;28;20040;-75
2021/07/03 07:56:08;;;;;;;5.38;3.67;;;;;;;24.45;47.18;99994.72;5095610;28;20064;-75
2021/07/03 07:58:36;;;;;;;4.97;4.03;;;;;;;24.26;47.16;99990.63;5095772;28;20048;-75
2021/07/03 08:01:04;;;;;;;5.93;3.75;;;;;;;24.46;46.97;99999.97;5095538;28;20490;-76
2021/07/03 08:03:32;;;;;;;6.60;4.00;;;;;;;24.38;46.24;99986.44;5095533;28;20113;-75
2021/07/03 08:06:01;;;;;;;5.22;3.88;;;;;;;24.13;47.42;99995.91;5095523;28;20040;-78
2021/07/03 08:08:32;;;;;;;6.43;4.20;;;;;;;24.31;48.35;99982.75;5095363;28;20040;-77
2021/07/03 08:11:01;;;;;;;5.53;4.20;;;;;;;24.49;47.79;99983.25;5095188;28;20048;-77
2021/07/03 08:13:30;;;;;;;5.70;4.47;;;;;;;24.22;47.45;99986.56;5095049;28;20406;-76
2021/07/03 08:16:00;;;;;;;6.65;4.13;;;;;;;24.32;47.34;99986.34;5076791;28;20514;-76
2021/07/03 08:18:28;;;;;;;6.38;4.25;;;;;;;24.33;47.35;99988.91;5095141;28;20392;-75
2021/07/03 08:20:57;;;;;;;9.73;4.45;;;;;;;24.49;47.82;99993.31;5094971;28;20044;-79
2021/07/03 08:23:25;;;;;;;6.72;4.70;;;;;;;24.54;47.47;99988.16;5077076;28;20067;-75
2021/07/03 08:25:55;;;;;;;5.30;4.10;;;;;;;24.45;46.84;99992.84;5095131;28;20399;-77
2021/07/03 08:28:23;;;;;;;8.30;4.35;;;;;;;24.44;47.79;100001.22;5095251;28;20044;-77
2021/07/03 08:30:52;;;;;;;6.88;4.90;;;;;;;24.35;48.16;100002.34;5095174;28;20044;-73
2021/07/03 08:33:20;;;;;;;7.00;4.72;;;;;;;24.35;49.65;99985.97;5094970;28;20048;-78
2021/07/03 08:35:49;;;;;;;8.82;4.80;;;;;;;24.50;48.75;100003.16;5094852;28;20048;-74
2021/07/03 08:38:20;;;;;;;6.85;4.60;;;;;;;24.46;48.08;99988.22;5095419;28;20044;-78
2021/07/03 08:40:49;;;;;;;6.55;4.72;;;;;;;24.70;47.91;99985.19;5094897;28;20052;-75
2021/07/03 08:43:19;;;;;;;6.00;4.47;;;;;;;24.68;47.58;99980.97;5095151;28;20071;-79
2021/07/03 08:45:48;;;;;;;6.32;4.47;;;;;;;24.62;46.94;99987.19;5094696;28;20705;-77
2021/07/03 08:48:19;;;;;;;6.65;4.53;;;;;;;24.28;47.43;99985.84;5095097;28;20047;-78
2021/07/03 08:50:47;;;;;;;8.45;4.78;;;;;;;24.32;48.15;99994.50;5095253;28;20040;-76
2021/07/03 08:53:16;;;;;;;8.48;4.53;;;;;;;24.70;47.92;99987.91;5094643;28;20116;-75
2021/07/03 08:55:44;;;;;;;6.25;4.60;;;;;;;24.69;46.74;99993.56;5094678;28;20055;-73
2021/07/03 08:58:12;;;;;;;7.22;4.65;;;;;;;24.84;45.77;99999.84;5094626;28;20485;-75
2021/07/03 09:00:44;;;;;;;6.47;4.32;;;;;;;24.87;46.23;99996.75;5094697;28;20059;-72
2021/07/03 09:03:17;;;;;;;6.03;4.78;;;;;;;24.79;45.01;99991.38;5094786;28;20078;-74
2021/07/03 09:05:50;;;;;;;6.60;4.30;;;;;;;24.87;45.67;99999.47;5094319;28;20044;-73
2021/07/03 09:08:19;;;;;;;6.68;4.40;;;;;;;24.63;45.66;99999.78;5094493;28;20124;-73
2021/07/03 09:10:49;;;;;;;7.88;4.35;;;;;;;24.78;44.93;100009.63;5094200;28;20040;-74
2021/07/03 09:13:20;;;;;;;6.43;4.65;;;;;;;24.74;44.51;100011.06;5094371;28;20048;-73
2021/07/03 09:15:50;;;;;;;10.38;4.97;;;;;;;24.58;45.70;100010.41;5094507;28;20043;-76
2021/07/03 09:18:18;;;;;;;6.57;4.40;;;;;;;24.61;45.33;100012.75;5094463;28;20065;-73
2021/07/03 09:20:52;;;;;;;6.30;4.50;;;;;;;24.97;44.50;100002.75;5093900;28;20123;-73
2021/07/03 09:23:22;;;;;;;5.82;3.97;;;;;;;24.72;43.52;100004.97;5076079;28;20056;-74
2021/07/03 09:25:53;;;;;;;7.35;4.50;;;;;;;24.75;44.76;99984.63;5094329;28;20044;-76
2021/07/03 09:28:23;;;;;;;6.75;4.07;;;;;;;25.07;44.08;99986.94;5094337;28;20127;-77
2021/07/03 09:30:58;;;;;;;6.75;4.28;;;;;;;25.00;43.86;100002.38;5094288;28;20082;-72
2021/07/03 09:33:28;;;;;;;6.10;4.10;;;;;;;25.01;43.63;99981.41;5093936;28;20490;-75
2021/07/03 09:35:58;;;;;;;5.53;4.00;;;;;;;25.03;43.07;99985.66;5093898;28;20059;-77
2021/07/03 09:38:31;;;;;;;5.72;4.05;;;;;;;25.31;42.63;99983.03;5094108;28;20102;-75
2021/07/03 09:41:13;;;;;;;10.00;4.32;;;;;;;25.17;43.05;99988.50;5093608;28;20517;-75
2021/07/03 09:43:56;;;;;;;6.10;4.38;;;;;;;25.21;43.75;99973.47;5094063;28;20075;-77
2021/07/03 09:46:27;;;;;;;5.78;4.72;;;;;;;25.45;43.88;99967.59;5093426;28;20071;-77
2021/07/03 09:48:56;;;;;;;6.35;4.00;;;;;;;25.68;43.09;99968.25;5094043;28;20121;-80
2021/07/03 09:51:26;;;;;;;8.27;4.40;;;;;;;25.88;41.11;99973.06;5093573;28;20494;-76
2021/07/03 09:53:55;;;;;;;6.88;4.15;;;;;;;26.12;40.60;99961.66;5093588;28;20072;-78
2021/07/03 09:56:24;;;;;;;5.93;4.20;;;;;;;25.78;40.20;99956.19;5093305;28;20093;-79
2021/07/03 09:58:53;;;;;;;6.40;4.45;;;;;;;25.40;41.64;99959.16;5093543;28;20040;-78
2021/07/03 10:01:21;;;;;;;7.80;4.80;;;;;;;25.30;42.33;99958.66;5093726;28;20047;-78
2021/07/03 10:03:51;;;;;;;6.90;4.75;;;;;;;25.72;42.09;99954.22;5093736;28;20055;-78
2021/07/03 10:06:23;;;;;;;5.88;4.32;;;;;;;25.75;41.32;99951.09;5093284;28;20048;-78
2021/07/03 10:08:57;;;;;;;7.97;5.15;;;;;;;25.53;44.32;99945.63;5093596;28;20085;-76
2021/07/03 10:11:27;;;;;;;9.00;5.13;;;;;;;25.23;45.16;99952.28;5093127;28;20043;-75
2021/07/03 10:14:01;;;;;;;6.85;4.70;;;;;;;25.18;45.99;99954.72;5093256;28;20146;-75
2021/07/03 10:16:30;;;;;;;10.10;5.20;;;;;;;25.61;43.73;99947.38;5092937;28;20142;-76
2021/07/03 10:19:09;;;;;;;7.95;5.28;;;;;;;25.83;43.37;99938.13;5093264;28;20043;-74
2021/07/03 10:21:38;;;;;;;8.10;5.32;;;;;;;26.13;42.45;99936.03;5092767;28;20048;-77
2021/07/03 10:24:17;;;;;;;7.38;4.78;;;;;;;26.19;41.90;99935.22;5093363;28;20043;-71
2021/07/03 10:26:46;;;;;;;7.97;4.90;;;;;;;26.72;41.51;99930.03;5093193;28;20139;-72
2021/07/03 10:29:17;;;;;;;6.40;4.50;;;;;;;26.96;40.91;99942.34;5092827;28;20501;-76
2021/07/03 10:31:46;;;;;;;9.45;4.22;;;;;;;26.90;38.40;99945.06;5093218;28;20035;-74
2021/07/03 10:34:27;;;;;;;6.70;4.57;;;;;;;26.51;38.38;99941.09;5092871;28;20086;-74
2021/07/03 10:37:10;;;;;;;5.50;4.03;;;;;;;26.31;38.62;99935.50;5093064;28;20036;-74
2021/07/03 10:39:38;;;;;;;5.70;3.90;;;;;;;26.13;38.98;99944.22;5092647;28;20040;-77
2021/07/03 10:42:07;;;;;;;6.93;4.35;;;;;;;26.03;38.57;99940.16;5092860;28;20043;-70
2021/07/03 10:44:41;;;;;;;6.40;3.95;;;;;;;25.77;38.75;99941.69;5092917;28;20414;-71
2021/07/03 10:47:11;;;;;;;5.80;3.72;;;;;;;26.18;38.32;99941.75;5092799;28;20036;-77
2021/07/03 10:49:41;;;;;;;5.53;3.75;;;;;;;26.34;37.24;99934.25;5092966;28;20497;-79
2021/07/03 10:52:14;;;;;;;5.68;3.90;;;;;;;26.45;37.49;99925.53;5092966;28;20094;-76
2021/07/03 10:54:43;;;;;;;6.43;3.78;;;;;;;26.38;38.03;99939.16;5092667;28;20406;-72
2021/07/03 10:57:11;;;;;;;7.05;4.30;;;;;;;26.41;38.64;99926.97;5092569;28;20052;-75
2021/07/03 10:59:41;;;;;;;5.35;3.58;;;;;;;26.23;36.70;99935.66;5093154;28;20047;-74
2021/07/03 11:02:11;;;;;;;8.18;4.40;;;;;;;26.22;37.04;99926.63;5092991;28;20467;-76
2021/07/03 11:04:50;;;;;;;8.63;3.97;;;;;;;26.37;36.97;99910.13;5097079;28;20086;-75
2021/07/03 11:07:20;;;;;;;5.10;3.60;;;;;;;26.56;36.47;99911.28;5096920;28;20420;-74
2021/07/03 11:09:49;;;;;;;5.28;3.88;;;;;;;26.48;36.37;99919.66;5096572;28;20040;-73
2021/07/03 11:12:19;;;;;;;6.63;3.55;;;;;;;26.66;36.09;99914.47;5096535;28;20048;-73
2021/07/03 11:14:51;;;;;;;6.28;4.05;;;;;;;26.41;37.64;99913.28;5096686;28;20063;-74
2021/07/03 11:17:21;;;;;;;7.10;4.10;;;;;;;26.43;36.78;99908.44;5096566;28;20051;-75
2021/07/03 11:19:53;;;;;;;5.15;3.65;;;;;;;26.46;36.80;99916.28;5096651;28;20097;-73
2021/07/03 11:22:23;;;;;;;5.72;3.90;;;;;;;26.63;37.60;99911.28;5096608;28;20479;-74
2021/07/03 11:24:53;;;;;;;8.85;4.32;;;;;;;26.82;37.25;99897.66;5096573;28;20044;-74
2021/07/03 11:27:27;;;;;;;5.55;3.67;;;;;;;26.76;36.81;99893.03;5096642;28;20453;-73
2021/07/03 11:29:56;;;;;;;5.90;3.53;;;;;;;26.49;36.44;99904.91;5095032;28;20060;-72
2021/07/03 11:32:24;;;;;;;4.75;3.60;;;;;;;26.19;36.08;99893.38;5096347;28;20055;-72
2021/07/03 11:34:56;;;;;;;5.75;3.83;;;;;;;26.22;36.53;99910.22;5095896;28;20060;-73
2021/07/03 11:37:30;;;;;;;6.93;4.03;;;;;;;26.23;37.25;99894.66;5096398;28;20040;-72
2021/07/03 11:40:01;;;;;;;5.32;3.80;;;;;;;26.50;36.44;99895.66;5096088;28;20085;-74
2021/07/03 11:42:31;;;;;;;7.05;4.25;;;;;;;26.44;36.97;99885.53;5096229;28;20048;-78
2021/07/03 11:45:00;;;;;;;6.53;3.78;;;;;;;26.86;35.15;99889.91;5095929;28;20082;-74